createdAt,value
2018-04-25T00:02:17.723Z,17.50
2018-04-25T00:04:45.955Z,17.20
2018-04-25T00:07:14.188Z,17.20
2018-04-25T00:09:42.399Z,17.20
2018-04-25T00:12:11.481Z,17.20
2018-04-25T00:14:39.698Z,17.10
2018-04-25T00:17:07.915Z,17.00
2018-04-25T00:19:36.147Z,16.90
2018-04-25T00:22:04.401Z,17.10
2018-04-25T00:24:32.621Z,16.80
2018-04-25T00:27:00.856Z,16.70
2018-04-25T00:29:29.077Z,16.70
2018-04-25T00:31:57.304Z,16.60
2018-04-25T00:34:25.557Z,16.50
2018-04-25T00:36:53.752Z,16.50
2018-04-25T00:39:22.008Z,16.60
2018-04-25T00:41:50.246Z,16.60
2018-04-25T00:44:18.465Z,16.60
2018-04-25T00:46:46.692Z,16.50
2018-04-25T00:49:14.924Z,16.60
2018-04-25T00:51:43.151Z,16.40
2018-04-25T00:54:11.365Z,16.40
2018-04-25T00:56:39.604Z,16.40
2018-04-25T00:59:07.824Z,16.50
2018-04-25T01:01:36.023Z,16.40
2018-04-25T01:04:04.274Z,16.40
2018-04-25T01:06:32.499Z,16.30
2018-04-25T01:09:00.725Z,16.30
2018-04-25T01:11:28.941Z,16.30
2018-04-25T01:13:57.273Z,16.20
2018-04-25T01:16:25.480Z,16.60
2018-04-25T01:18:53.709Z,16.80
2018-04-25T01:21:21.930Z,17.00
2018-04-25T01:23:50.180Z,17.00
2018-04-25T01:26:18.447Z,17.00
2018-04-25T01:28:53.291Z,16.60
2018-04-25T01:31:27.584Z,16.40
2018-04-25T01:36:59.673Z,16.60
2018-04-25T01:39:32.683Z,16.50
2018-04-25T01:42:00.916Z,16.40
2018-04-25T01:44:39.808Z,16.30
2018-04-25T01:47:10.917Z,16.30
2018-04-25T01:52:49.084Z,16.20
2018-04-25T01:55:29.190Z,16.20
2018-04-25T01:58:09.249Z,16.40
2018-04-25T02:00:49.324Z,16.00
2018-04-25T02:03:17.567Z,15.70
2018-04-25T02:05:45.821Z,15.90
2018-04-25T02:08:14.055Z,15.70
2018-04-25T02:10:42.284Z,15.70
2018-04-25T02:13:10.554Z,15.60
2018-04-25T02:15:38.799Z,15.60
2018-04-25T02:18:07.821Z,16.00
2018-04-25T02:20:36.058Z,16.00
2018-04-25T02:23:04.631Z,15.70
2018-04-25T02:25:32.951Z,15.80
2018-04-25T02:28:01.157Z,15.70
2018-04-25T02:30:29.401Z,15.90
2018-04-25T02:32:57.613Z,16.10
2018-04-25T02:35:25.849Z,16.20
2018-04-25T02:37:54.826Z,16.00
2018-04-25T02:40:23.817Z,16.00
2018-04-25T02:42:52.849Z,16.00
2018-04-25T02:45:21.093Z,16.00
2018-04-25T02:47:50.093Z,16.00
2018-04-25T02:50:18.373Z,16.00
2018-04-25T02:52:46.587Z,16.00
2018-04-25T02:55:14.825Z,16.00
2018-04-25T02:57:43.032Z,15.80
2018-04-25T03:00:11.633Z,15.90
2018-04-25T03:02:39.873Z,15.90
2018-04-25T03:05:08.109Z,15.60
2018-04-25T03:07:37.125Z,16.00
2018-04-25T03:10:05.765Z,16.00
2018-04-25T03:12:33.997Z,15.70
2018-04-25T03:15:02.233Z,15.70
2018-04-25T03:17:31.225Z,15.50
2018-04-25T03:19:59.446Z,15.50
2018-04-25T03:22:27.656Z,15.50
2018-04-25T03:24:55.866Z,15.50
2018-04-25T03:27:24.646Z,15.60
2018-04-25T03:29:53.616Z,15.40
2018-04-25T03:32:22.046Z,15.30
2018-04-25T03:34:50.241Z,15.30
2018-04-25T03:37:18.475Z,15.40
2018-04-25T03:39:47.272Z,15.40
2018-04-25T03:42:15.496Z,15.20
2018-04-25T03:44:45.260Z,15.10
2018-04-25T03:47:13.496Z,15.20
2018-04-25T03:49:42.701Z,15.00
2018-04-25T03:52:11.708Z,15.00
2018-04-25T03:54:40.757Z,15.00
2018-04-25T03:57:08.990Z,14.90
2018-04-25T03:59:37.335Z,14.90
2018-04-25T04:02:06.205Z,14.90
2018-04-25T04:04:35.154Z,14.90
2018-04-25T04:07:03.376Z,14.90
2018-04-25T04:09:31.595Z,14.80
2018-04-25T04:11:59.860Z,14.90
2018-04-25T04:14:28.832Z,15.00
2018-04-25T04:16:57.856Z,15.00
2018-04-25T04:19:26.083Z,15.00
2018-04-25T04:21:54.316Z,14.80
2018-04-25T04:24:22.548Z,14.90
2018-04-25T04:26:50.846Z,15.00
2018-04-25T04:29:19.054Z,15.00
2018-04-25T04:31:47.285Z,15.00
2018-04-25T04:34:16.266Z,15.00
2018-04-25T04:36:45.260Z,15.00
2018-04-25T04:39:14.240Z,15.00
2018-04-25T04:41:42.469Z,15.00
2018-04-25T04:44:10.679Z,15.10
2018-04-25T04:46:38.901Z,15.00
2018-04-25T04:49:07.121Z,14.90
2018-04-25T04:51:35.436Z,14.90
2018-04-25T04:54:04.441Z,14.90
2018-04-25T04:56:32.665Z,14.90
2018-04-25T04:59:00.869Z,15.00
2018-04-25T05:01:29.860Z,15.10
2018-04-25T05:03:58.870Z,15.20
2018-04-25T05:06:27.173Z,15.20
2018-04-25T05:08:55.424Z,15.30
2018-04-25T05:11:24.680Z,15.30
2018-04-25T05:13:52.997Z,15.40
2018-04-25T05:16:21.275Z,15.30
2018-04-25T05:18:49.510Z,15.30
2018-04-25T05:21:17.718Z,15.30
2018-04-25T05:23:45.969Z,15.50
2018-04-25T05:26:14.187Z,15.50
2018-04-25T05:28:42.414Z,15.60
2018-04-25T05:31:10.724Z,15.60
2018-04-25T05:33:38.950Z,15.70
2018-04-25T05:36:07.166Z,15.70
2018-04-25T05:38:36.229Z,15.90
2018-04-25T05:41:04.387Z,15.80
2018-04-25T05:43:32.605Z,16.00
2018-04-25T05:46:01.626Z,16.10
2018-04-25T05:48:30.577Z,16.10
2018-04-25T05:50:58.873Z,16.10
2018-04-25T05:53:27.090Z,16.20
2018-04-25T05:55:55.338Z,16.30
2018-04-25T05:58:23.579Z,16.40
2018-04-25T06:00:52.551Z,16.60
2018-04-25T06:03:21.209Z,16.60
2018-04-25T06:05:49.444Z,16.70
2018-04-25T06:08:18.436Z,16.70
2018-04-25T06:10:46.636Z,16.70
2018-04-25T06:13:14.872Z,16.70
2018-04-25T06:15:43.872Z,16.90
2018-04-25T06:18:12.856Z,17.00
2018-04-25T06:20:41.828Z,17.10
2018-04-25T06:23:10.337Z,17.10
2018-04-25T06:25:39.315Z,17.20
2018-04-25T06:28:07.547Z,17.10
2018-04-25T06:30:35.744Z,17.30
2018-04-25T06:33:04.064Z,17.20
2018-04-25T06:35:33.045Z,17.40
2018-04-25T06:38:02.048Z,17.50
2018-04-25T06:40:30.325Z,17.50
2018-04-25T06:42:58.541Z,17.60
2018-04-25T06:45:26.754Z,17.50
2018-04-25T06:47:55.062Z,17.60
2018-04-25T06:50:23.248Z,17.60
2018-04-25T06:52:51.534Z,17.80
2018-04-25T06:55:19.736Z,17.80
2018-04-25T06:57:48.074Z,17.80
2018-04-25T07:00:16.296Z,17.80
2018-04-25T07:02:44.512Z,17.80
2018-04-25T07:05:12.801Z,18.00
2018-04-25T07:07:41.009Z,18.30
2018-04-25T07:10:09.483Z,18.50
2018-04-25T07:12:37.703Z,18.80
2018-04-25T07:15:05.934Z,18.70
2018-04-25T07:17:34.370Z,18.60
2018-04-25T07:20:03.731Z,18.10
2018-04-25T07:22:32.713Z,18.40
2018-04-25T07:25:00.953Z,18.40
2018-04-25T07:27:29.170Z,18.60
2018-04-25T07:29:57.481Z,18.70
2018-04-25T07:32:25.770Z,18.90
2018-04-25T07:34:54.026Z,18.90
2018-04-25T07:37:22.248Z,19.00
2018-04-25T07:39:50.476Z,19.20
2018-04-25T07:42:18.686Z,19.30
2018-04-25T07:44:46.923Z,19.10
2018-04-25T07:47:15.913Z,19.30
2018-04-25T07:49:44.140Z,19.30
2018-04-25T07:52:12.369Z,19.30
2018-04-25T07:54:41.358Z,19.50
2018-04-25T07:57:09.640Z,19.50
2018-04-25T07:59:37.849Z,19.70
2018-04-25T08:02:06.523Z,19.90
2018-04-25T08:04:34.796Z,19.80
2018-04-25T08:07:03.041Z,20.10
2018-04-25T08:09:31.274Z,20.00
2018-04-25T08:11:59.483Z,20.10
2018-04-25T08:14:40.329Z,20.30
2018-04-25T08:17:20.462Z,20.30
2018-04-25T08:20:00.534Z,20.00
2018-04-25T08:22:28.744Z,20.00
2018-04-25T08:24:56.976Z,20.30
2018-04-25T08:27:25.205Z,20.70
2018-04-25T08:29:53.538Z,20.50
2018-04-25T08:32:21.753Z,20.70
2018-04-25T08:34:49.985Z,20.50
2018-04-25T08:37:18.207Z,21.10
2018-04-25T08:39:46.457Z,20.90
2018-04-25T08:42:15.425Z,21.00
2018-04-25T08:44:43.891Z,21.00
2018-04-25T08:47:12.023Z,20.40
2018-04-25T08:49:40.263Z,20.30
2018-04-25T08:52:09.229Z,20.70
2018-04-25T08:54:38.464Z,20.70
2018-04-25T08:57:07.452Z,20.80
2018-04-25T08:59:36.438Z,20.30
2018-04-25T09:02:04.665Z,20.30
2018-04-25T09:04:33.322Z,20.30
2018-04-25T09:07:01.555Z,20.20
2018-04-25T09:09:29.765Z,20.40
2018-04-25T09:11:57.984Z,20.40
2018-04-25T09:14:26.196Z,20.30
2018-04-25T09:16:55.225Z,20.20
2018-04-25T09:19:24.163Z,20.10
2018-04-25T09:21:52.553Z,20.10
2018-04-25T09:24:22.999Z,20.20
2018-04-25T09:26:51.984Z,19.80
2018-04-25T09:29:20.988Z,19.80
2018-04-25T09:31:49.309Z,19.80
2018-04-25T09:34:17.566Z,19.70
2018-04-25T09:36:45.810Z,19.70
2018-04-25T09:39:14.784Z,19.60
2018-04-25T09:41:43.801Z,19.60
2018-04-25T09:44:12.076Z,19.60
2018-04-25T09:46:40.361Z,19.60
2018-04-25T09:49:08.648Z,19.50
2018-04-25T09:51:36.893Z,19.40
2018-04-25T09:54:05.860Z,19.50
2018-04-25T09:56:34.098Z,19.50
2018-04-25T09:59:02.368Z,19.40
2018-04-25T10:01:31.376Z,19.50
2018-04-25T10:03:59.651Z,19.40
2018-04-25T10:06:28.590Z,19.60
2018-04-25T10:08:57.618Z,19.40
2018-04-25T10:11:26.575Z,19.50
2018-04-25T10:13:55.576Z,19.40
2018-04-25T10:16:23.857Z,19.40
2018-04-25T10:18:52.056Z,19.20
2018-04-25T10:21:20.280Z,19.20
2018-04-25T10:23:48.496Z,19.20
2018-04-25T10:26:16.749Z,19.30
2018-04-25T10:28:45.725Z,19.30
2018-04-25T10:31:13.994Z,19.30
2018-04-25T10:33:42.198Z,19.20
2018-04-25T10:36:10.486Z,19.40
2018-04-25T10:38:38.712Z,19.60
2018-04-25T10:41:06.923Z,19.50
2018-04-25T10:43:35.142Z,19.30
2018-04-25T10:46:03.352Z,19.30
2018-04-25T10:48:32.520Z,19.50
2018-04-25T10:51:00.716Z,19.50
2018-04-25T10:53:29.010Z,19.40
2018-04-25T10:55:58.072Z,19.90
2018-04-25T10:58:26.286Z,19.90
2018-04-25T11:00:54.486Z,19.80
2018-04-25T11:03:23.397Z,19.90
2018-04-25T11:05:51.626Z,19.70
2018-04-25T11:08:19.880Z,19.50
2018-04-25T11:10:48.065Z,19.50
2018-04-25T11:13:17.049Z,19.60
2018-04-25T11:15:46.048Z,19.70
2018-04-25T11:18:15.045Z,19.90
2018-04-25T11:20:43.316Z,19.90
2018-04-25T11:23:12.605Z,19.90
2018-04-25T11:25:41.618Z,19.90
2018-04-25T11:28:09.844Z,19.90
2018-04-25T11:30:38.060Z,19.80
2018-04-25T11:33:07.037Z,19.70
2018-04-25T11:35:36.013Z,19.70
2018-04-25T11:38:04.248Z,19.70
2018-04-25T11:40:32.464Z,19.70
2018-04-25T11:43:00.697Z,19.70
2018-04-25T11:45:28.928Z,19.60
2018-04-25T11:47:57.144Z,19.50
2018-04-25T11:50:25.368Z,19.40
2018-04-25T11:52:53.606Z,19.40
2018-04-25T11:55:21.940Z,19.40
2018-04-25T11:57:50.166Z,19.30
2018-04-25T12:00:18.373Z,19.10
2018-04-25T12:02:47.448Z,19.20
2018-04-25T12:05:16.360Z,19.40
2018-04-25T12:07:45.368Z,19.40
2018-04-25T12:10:13.695Z,19.40
2018-04-25T12:12:41.889Z,19.40
2018-04-25T12:15:10.188Z,19.30
2018-04-25T12:17:39.185Z,19.20
2018-04-25T12:20:09.365Z,19.10
2018-04-25T12:22:38.400Z,19.10
2018-04-25T12:25:07.387Z,19.10
2018-04-25T12:27:36.388Z,19.30
2018-04-25T12:30:04.953Z,19.30
2018-04-25T12:32:33.167Z,19.30
2018-04-25T12:35:01.376Z,19.10
2018-04-25T12:37:29.606Z,18.90
2018-04-25T12:39:57.825Z,18.90
2018-04-25T12:42:26.141Z,19.10
2018-04-25T12:44:54.376Z,19.10
2018-04-25T12:47:22.609Z,18.90
2018-04-25T12:49:50.851Z,19.20
2018-04-25T12:52:19.828Z,19.20
2018-04-25T12:54:48.057Z,19.20
2018-04-25T12:57:16.290Z,19.40
2018-04-25T12:59:44.520Z,19.50
2018-04-25T13:02:12.721Z,19.60
2018-04-25T13:04:40.947Z,19.70
2018-04-25T13:07:09.152Z,19.60
2018-04-25T13:09:37.379Z,19.90
2018-04-25T13:12:05.605Z,19.60
2018-04-25T13:14:33.900Z,20.00
2018-04-25T13:17:02.067Z,19.90
2018-04-25T13:19:30.378Z,19.40
2018-04-25T13:21:58.649Z,19.40
2018-04-25T13:24:27.650Z,18.30
2018-04-25T13:26:56.624Z,18.40
2018-04-25T13:29:25.613Z,18.40
2018-04-25T13:31:54.597Z,18.40
2018-04-25T13:34:22.806Z,18.50
2018-04-25T13:36:51.021Z,18.50
2018-04-25T13:39:19.257Z,18.60
2018-04-25T13:41:47.493Z,18.90
2018-04-25T13:44:15.753Z,19.00
2018-04-25T13:46:44.002Z,18.90
2018-04-25T13:49:12.948Z,19.10
2018-04-25T13:51:41.935Z,19.10
2018-04-25T13:54:10.190Z,19.10
2018-04-25T13:56:38.425Z,19.40
2018-04-25T13:59:06.658Z,19.20
2018-04-25T14:01:36.397Z,19.10
2018-04-25T14:04:04.667Z,19.10
2018-04-25T14:06:32.872Z,19.50
2018-04-25T14:09:01.122Z,19.50
2018-04-25T14:11:29.337Z,19.60
2018-04-25T14:13:57.567Z,19.90
2018-04-25T14:16:25.782Z,20.10
2018-04-25T14:18:54.008Z,19.90
2018-04-25T14:21:22.977Z,20.10
2018-04-25T14:23:51.204Z,20.10
2018-04-25T14:26:19.443Z,20.20
2018-04-25T14:28:48.454Z,20.50
2018-04-25T14:31:16.726Z,20.50
2018-04-25T14:33:44.948Z,20.60
2018-04-25T14:36:13.153Z,20.40
2018-04-25T14:38:43.080Z,21.10
2018-04-25T14:41:12.060Z,21.40
2018-04-25T14:43:40.275Z,21.40
2018-04-25T14:46:08.497Z,22.90
2018-04-25T14:48:36.797Z,25.40
2018-04-25T14:51:05.808Z,27.20
2018-04-25T14:53:34.005Z,27.20
2018-04-25T14:56:02.228Z,27.80
2018-04-25T14:58:30.435Z,28.40
2018-04-25T15:00:58.667Z,29.30
2018-04-25T15:03:26.875Z,30.30
2018-04-25T15:05:55.105Z,29.70
2018-04-25T15:08:23.313Z,29.80
2018-04-25T15:10:51.704Z,30.80
2018-04-25T15:13:19.910Z,30.30
2018-04-25T15:15:48.144Z,30.50
2018-04-25T15:18:16.386Z,30.80
2018-04-25T15:20:44.678Z,28.40
2018-04-25T15:23:12.962Z,27.50
2018-04-25T15:25:41.952Z,23.50
2018-04-25T15:28:10.943Z,23.40
2018-04-25T15:30:39.947Z,21.90
2018-04-25T15:33:08.228Z,21.80
2018-04-25T15:35:36.471Z,21.50
2018-04-25T15:38:04.673Z,21.70
2018-04-25T15:40:32.952Z,21.60
2018-04-25T15:43:01.277Z,21.70
2018-04-25T15:45:29.477Z,21.70
2018-04-25T15:47:58.525Z,21.60
2018-04-25T15:50:26.670Z,21.50
2018-04-25T15:52:54.940Z,21.30
2018-04-25T15:55:23.168Z,21.20
2018-04-25T15:57:51.552Z,21.10
2018-04-25T16:00:19.772Z,21.00
2018-04-25T16:02:47.977Z,21.00
2018-04-25T16:05:16.201Z,20.70
2018-04-25T16:07:45.261Z,20.70
2018-04-25T16:10:13.466Z,20.60
2018-04-25T16:12:42.514Z,20.90
2018-04-25T16:15:10.740Z,20.90
2018-04-25T16:17:39.732Z,20.50
2018-04-25T16:20:09.095Z,20.60
2018-04-25T16:22:37.413Z,20.60
2018-04-25T16:25:05.668Z,20.90
2018-04-25T16:27:33.873Z,20.80
2018-04-25T16:30:02.403Z,20.90
2018-04-25T16:32:30.629Z,20.70
2018-04-25T16:34:58.859Z,20.80
2018-04-25T16:37:27.074Z,20.70
2018-04-25T16:39:55.282Z,20.70
2018-04-25T16:42:23.520Z,20.60
2018-04-25T16:44:51.812Z,20.40
2018-04-25T16:47:20.070Z,20.50
2018-04-25T16:49:49.077Z,19.80
2018-04-25T16:52:17.330Z,19.80
2018-04-25T16:54:46.341Z,19.40
2018-04-25T16:57:14.672Z,19.30
2018-04-25T16:59:42.835Z,19.60
2018-04-25T17:02:11.057Z,19.60
2018-04-25T17:04:39.293Z,19.60
2018-04-25T17:07:07.599Z,19.40
2018-04-25T17:09:35.842Z,19.60
2018-04-25T17:12:04.016Z,19.70
2018-04-25T17:14:32.240Z,19.60
2018-04-25T17:17:00.469Z,19.50
2018-04-25T17:19:28.684Z,19.30
2018-04-25T17:21:56.961Z,19.50
2018-04-25T17:24:25.238Z,19.50
2018-04-25T17:26:53.516Z,19.50
2018-04-25T17:29:21.779Z,19.20
2018-04-25T17:31:50.029Z,19.10
2018-04-25T17:34:18.345Z,19.10
2018-04-25T17:36:46.644Z,19.00
2018-04-25T17:39:14.781Z,18.60
2018-04-25T17:41:43.001Z,18.60
2018-04-25T17:44:11.208Z,18.10
2018-04-25T17:46:40.222Z,17.50
2018-04-25T17:49:08.450Z,17.40
2018-04-25T17:51:36.676Z,17.00
2018-04-25T17:54:04.896Z,17.00
2018-04-25T17:56:33.124Z,17.10
2018-04-25T17:59:01.341Z,16.50
2018-04-25T18:01:29.587Z,16.20
2018-04-25T18:03:57.785Z,16.30
2018-04-25T18:06:26.013Z,16.50
2018-04-25T18:08:54.213Z,16.60
2018-04-25T18:11:22.536Z,16.30
2018-04-25T18:13:50.698Z,16.10
2018-04-25T18:16:20.824Z,16.50
2018-04-25T18:18:49.965Z,16.60
2018-04-25T18:21:18.184Z,16.70
2018-04-25T18:23:46.399Z,16.60
2018-04-25T18:26:15.412Z,17.20
2018-04-25T18:28:43.680Z,17.20
2018-04-25T18:31:11.899Z,17.20
2018-04-25T18:33:40.169Z,17.20
2018-04-25T18:36:08.809Z,16.70
2018-04-25T18:38:37.140Z,16.80
2018-04-25T18:41:05.346Z,16.80
2018-04-25T18:43:34.464Z,16.70
2018-04-25T18:46:02.696Z,16.60
2018-04-25T18:48:31.017Z,16.80
2018-04-25T18:50:59.621Z,16.50
2018-04-25T18:53:27.830Z,16.40
2018-04-25T18:55:56.049Z,16.40
2018-04-25T18:58:24.264Z,16.50
2018-04-25T19:00:52.480Z,16.20
2018-04-25T19:03:23.558Z,16.30
2018-04-25T19:05:51.796Z,16.50
2018-04-25T19:08:20.794Z,16.10
2018-04-25T19:10:49.018Z,16.00
2018-04-25T19:13:17.229Z,16.20
2018-04-25T19:15:46.206Z,16.20
2018-04-25T19:18:14.444Z,16.20
2018-04-25T19:20:42.704Z,16.30
2018-04-25T19:23:11.317Z,16.00
2018-04-25T19:25:39.538Z,16.00
2018-04-25T19:28:07.763Z,15.70
2018-04-25T19:30:36.131Z,15.60
2018-04-25T19:33:04.363Z,15.50
2018-04-25T19:35:33.329Z,15.70
2018-04-25T19:38:04.668Z,15.70
2018-04-25T19:40:33.713Z,15.80
2018-04-25T19:43:01.947Z,15.80
2018-04-25T19:45:30.153Z,15.70
2018-04-25T19:47:58.423Z,15.60
2018-04-25T19:50:26.648Z,15.60
2018-04-25T19:52:54.972Z,15.60
2018-04-25T19:55:23.252Z,15.60
2018-04-25T19:57:51.475Z,15.50
2018-04-25T20:00:19.688Z,15.50
2018-04-25T20:02:48.674Z,15.70
2018-04-25T20:05:17.698Z,15.40
2018-04-25T20:07:45.921Z,15.40
2018-04-25T20:10:14.900Z,15.40
2018-04-25T20:12:43.240Z,15.40
2018-04-25T20:15:11.456Z,15.40
2018-04-25T20:17:40.502Z,15.40
2018-04-25T20:20:08.964Z,15.40
2018-04-25T20:22:37.133Z,15.50
2018-04-25T20:25:06.131Z,15.20
2018-04-25T20:27:35.136Z,15.20
2018-04-25T20:30:03.664Z,15.20
2018-04-25T20:32:31.972Z,15.20
2018-04-25T20:35:00.964Z,15.20
2018-04-25T20:37:29.961Z,15.30
2018-04-25T20:39:58.934Z,15.10
2018-04-25T20:42:27.146Z,15.10
2018-04-25T20:44:55.351Z,15.30
2018-04-25T20:47:23.589Z,15.30
2018-04-25T20:49:51.821Z,15.40
2018-04-25T20:52:20.075Z,15.30
2018-04-25T20:54:48.296Z,15.20
2018-04-25T20:57:17.290Z,15.30
2018-04-25T20:59:46.284Z,15.40
2018-04-25T21:02:15.307Z,15.40
2018-04-25T21:04:43.484Z,15.40
2018-04-25T21:07:11.705Z,15.50
2018-04-25T21:09:40.090Z,15.50
2018-04-25T21:12:09.127Z,15.40
2018-04-25T21:14:37.362Z,15.30
2018-04-25T21:17:06.458Z,15.10
2018-04-25T21:19:34.778Z,15.00
2018-04-25T21:22:03.075Z,15.10
2018-04-25T21:24:31.313Z,15.00
2018-04-25T21:26:59.526Z,15.10
2018-04-25T21:29:27.747Z,15.10
2018-04-25T21:32:00.743Z,15.20
2018-04-25T21:34:30.850Z,15.10
2018-04-25T21:36:59.137Z,15.00
2018-04-25T21:39:27.361Z,15.30
2018-04-25T21:41:55.561Z,15.40
2018-04-25T21:44:24.569Z,15.10
2018-04-25T21:46:53.578Z,15.20
2018-04-25T21:49:21.813Z,15.10
2018-04-25T21:51:50.034Z,15.10
2018-04-25T21:54:18.262Z,15.10
2018-04-25T21:56:46.453Z,15.00
2018-04-25T21:59:15.448Z,15.10
2018-04-25T22:01:44.403Z,14.90
2018-04-25T22:04:12.629Z,14.90
2018-04-25T22:06:40.853Z,14.90
2018-04-25T22:09:09.164Z,15.10
2018-04-25T22:11:38.153Z,14.90
2018-04-25T22:14:07.166Z,14.80
2018-04-25T22:16:35.387Z,14.80
2018-04-25T22:19:03.602Z,14.60
2018-04-25T22:21:32.579Z,14.80
2018-04-25T22:24:01.556Z,14.60
2018-04-25T22:26:29.845Z,14.50
2018-04-25T22:28:58.836Z,14.60
2018-04-25T22:31:27.843Z,14.60
2018-04-25T22:33:56.833Z,14.70
2018-04-25T22:36:25.806Z,14.60
2018-04-25T22:38:54.026Z,14.60
2018-04-25T22:41:22.236Z,14.70
2018-04-25T22:43:50.480Z,14.60
2018-04-25T22:46:18.689Z,14.60
2018-04-25T22:48:46.902Z,14.70
2018-04-25T22:51:15.125Z,14.80
2018-04-25T22:53:43.451Z,14.70
2018-04-25T22:56:12.428Z,14.50
2018-04-25T22:58:42.154Z,14.60
2018-04-25T23:01:10.431Z,14.60
2018-04-25T23:03:38.675Z,14.60
2018-04-25T23:06:06.907Z,14.90
2018-04-25T23:08:35.161Z,14.90
2018-04-25T23:11:03.393Z,14.90
2018-04-25T23:13:31.620Z,14.90
2018-04-25T23:15:59.887Z,14.80
2018-04-25T23:18:28.191Z,14.70
2018-04-25T23:20:56.432Z,14.60
2018-04-25T23:23:24.658Z,14.70
2018-04-25T23:25:52.896Z,14.50
2018-04-25T23:28:21.128Z,14.40
2018-04-25T23:30:49.360Z,14.40
2018-04-25T23:33:17.562Z,14.30
2018-04-25T23:35:45.776Z,14.40
2018-04-25T23:38:13.998Z,14.40
2018-04-25T23:40:42.226Z,14.40
2018-04-25T23:43:10.678Z,14.30
2018-04-25T23:45:40.406Z,14.30
2018-04-25T23:48:09.373Z,14.10
2018-04-25T23:50:37.593Z,14.00
2018-04-25T23:53:05.817Z,14.00
2018-04-25T23:55:34.116Z,14.00
2018-04-25T23:58:02.378Z,14.00
